茨城 の空港の天気 - METARとTAF

茨城空港(百里飛行場) ( RJAH / IBR ) - 茨城県小美玉市
飛行場実況気象(Metar)
観測時間02/21 00:00 JST (02/20 15:00 UTC)
風向・風速北北西 5m/s
視程10km以上
天気現象
少しの雲 雲底高度 240m
全天の8割程度の雲 雲底高度 2440m
気温6℃
湿度57%
気圧999hPa
METARRJAH 201500Z 33009KT 9999 FEW008 BKN080 06/M02 Q0999
過去の天気等 Google飛行場航空写真 Wunderground天気予報

過去48時間のMETAR

飛行場予報(TAF)
発表時間: 2/20 21:38 JST (2/20 12:38 UTC)
予報対象時間: 20日21時 JST ~ 22日3時 JST
風向・風速北西 3m/s
視程10km以上
少しの雲 雲底高度 910m
20日21時 JST ~ 20日23時 JST に一時的に
視程4,000m
天気現象弱いしゅう雨 もや
21日9時 JST ~ 21日12時 JST に徐々に
風向・風速北西 8m/s
21日9時 JST ~ 21日18時 JST に一時的に
風向・風速北西 9m/s 瞬間風速 15m/s
21日18時 JST ~ 21日21時 JST に徐々に
風向・風速北北西 2m/s
TAF AMD RJAH 201238Z 2012/2118 32006KT 9999 FEW030
TEMPO 2012/2014 4000 -SHRA BR
BECMG 2100/2103 32016KT
TEMPO 2100/2109 32018G30KT
BECMG 2109/2112 34004KT
日本の空港のMETAR・TAFへのリンク

RJTT 東京国際空港
RJAA 新東京国際空港
RJBB 関西国際空港
RJOO 大阪空港
RJGG 中部国際空港
RJCC 新千歳空港
RJFF 福岡空港
ROAH 那覇空港


RJEC 旭川空港
RJCH 函館空港
RJCK 釧路空港
RJCM 女満別空港
RJCB 帯広空港
RJSA 青森空港
RJSS 仙台空港
RJSK 秋田空港
RJSF 福島空港
RJAH 茨城空港
RJSN 新潟空港
RJNT 富山空港
RJNK 小松飛行場
RJNS 静岡空港
RJOH 美保飛行場
RJOC 出雲空港
RJOB 岡山空港
RJOA 広島空港
RJOI 岩国飛行場
RJOT 高松空港
RJOM 松山空港
RJOK 高知空港
RJFR 北九州空港
RJFT 熊本空港
RJFU 長崎空港
RJFS 佐賀空港
RJFO 大分空港
RJFM 宮崎空港
RJFK 鹿児島空港
ROIG 石垣島空港
RJTY 横田飛行場
ROTM 普天間飛行場
RODN 嘉手納飛行場